createdAt,value
2023-11-25T00:00:49.880Z,4.61
2023-11-25T00:03:11.807Z,4.63
2023-11-25T00:05:33.629Z,4.67
2023-11-25T00:07:56.645Z,4.68
2023-11-25T00:10:19.766Z,4.71
2023-11-25T00:12:41.708Z,4.69
2023-11-25T00:15:04.343Z,4.72
2023-11-25T00:17:29.408Z,4.72
2023-11-25T00:19:51.662Z,4.73
2023-11-25T00:22:13.548Z,4.75
2023-11-25T00:24:36.938Z,4.76
2023-11-25T00:26:58.841Z,4.77
2023-11-25T00:29:20.716Z,4.73
2023-11-25T00:31:42.656Z,4.75
2023-11-25T00:34:05.336Z,4.72
2023-11-25T00:36:27.305Z,4.71
2023-11-25T00:38:49.183Z,4.69
2023-11-25T00:41:11.032Z,4.69
2023-11-25T00:43:33.360Z,4.70
2023-11-25T00:45:55.347Z,4.75
2023-11-25T00:48:17.427Z,4.81
2023-11-25T00:50:39.311Z,4.82
2023-11-25T00:53:01.429Z,4.89
2023-11-25T00:55:23.426Z,4.89
2023-11-25T00:57:45.300Z,4.92
2023-11-25T01:00:13.659Z,4.91
2023-11-25T01:02:36.469Z,4.97
2023-11-25T01:04:58.581Z,4.93
2023-11-25T01:07:20.467Z,4.84
2023-11-25T01:09:42.444Z,4.84
2023-11-25T01:12:04.628Z,4.81
2023-11-25T01:14:27.142Z,4.72
2023-11-25T01:16:51.551Z,4.65
2023-11-25T01:19:13.974Z,4.56
2023-11-25T01:21:35.844Z,4.56
2023-11-25T01:23:57.889Z,4.51
2023-11-25T01:26:20.066Z,4.35
2023-11-25T01:28:45.172Z,4.23
2023-11-25T01:31:07.692Z,4.28
2023-11-25T01:33:29.798Z,4.29
2023-11-25T01:35:51.719Z,4.16
2023-11-25T01:38:14.653Z,4.12
2023-11-25T01:40:38.315Z,4.10
2023-11-25T01:43:00.698Z,4.09
2023-11-25T01:45:22.636Z,4.06
2023-11-25T01:47:44.875Z,4.08
2023-11-25T01:50:08.214Z,4.10
2023-11-25T01:52:32.051Z,4.07
2023-11-25T01:54:54.364Z,4.13
2023-11-25T01:57:18.773Z,4.20
2023-11-25T01:59:41.053Z,4.17
2023-11-25T02:02:06.123Z,4.10
2023-11-25T02:04:28.255Z,4.08
2023-11-25T02:06:51.188Z,4.07
2023-11-25T02:09:14.123Z,4.04
2023-11-25T02:12:02.692Z,3.99
2023-11-25T02:14:28.711Z,3.94
2023-11-25T02:16:50.896Z,3.99
2023-11-25T02:19:13.286Z,3.97
2023-11-25T02:21:40.848Z,3.93
2023-11-25T02:24:02.785Z,3.91
2023-11-25T02:26:26.541Z,3.91
2023-11-25T02:28:48.473Z,3.80
2023-11-25T02:31:10.477Z,3.79
2023-11-25T02:33:37.732Z,3.87
2023-11-25T02:35:59.766Z,3.90
2023-11-25T02:38:21.709Z,3.84
2023-11-25T02:40:47.141Z,3.86
2023-11-25T02:43:09.047Z,3.84
2023-11-25T02:45:31.065Z,3.85
2023-11-25T02:47:53.344Z,3.85
2023-11-25T02:50:15.823Z,3.85
2023-11-25T02:52:38.178Z,3.66
2023-11-25T02:55:00.129Z,3.64
2023-11-25T02:57:22.032Z,3.70
2023-11-25T02:59:43.883Z,3.73
2023-11-25T03:02:11.064Z,3.76
2023-11-25T03:04:38.065Z,3.76
2023-11-25T03:07:05.621Z,3.68
2023-11-25T03:09:29.149Z,3.68
2023-11-25T03:11:51.389Z,3.71
2023-11-25T03:14:16.402Z,3.74
2023-11-25T03:16:38.523Z,3.71
2023-11-25T03:19:01.555Z,3.68
2023-11-25T03:21:23.646Z,3.69
2023-11-25T03:23:45.570Z,3.66
2023-11-25T03:26:11.131Z,3.67
2023-11-25T03:28:33.341Z,3.58
2023-11-25T03:30:55.454Z,3.52
2023-11-25T03:33:17.470Z,3.58
2023-11-25T03:35:39.416Z,3.55
2023-11-25T03:38:01.366Z,3.59
2023-11-25T03:40:23.444Z,3.56
2023-11-25T03:42:45.467Z,3.58
2023-11-25T03:45:11.025Z,3.56
2023-11-25T03:47:33.162Z,3.56
2023-11-25T03:49:55.050Z,3.52
2023-11-25T03:52:16.900Z,3.57
2023-11-25T03:54:39.484Z,3.63
2023-11-25T03:57:01.827Z,3.66
2023-11-25T03:59:23.754Z,3.69
2023-11-25T04:01:45.911Z,3.70
2023-11-25T04:04:07.928Z,3.73
2023-11-25T04:06:29.953Z,3.70
2023-11-25T04:08:51.896Z,3.66
2023-11-25T04:11:13.788Z,3.56
2023-11-25T04:13:35.741Z,3.56
2023-11-25T04:15:57.610Z,3.60
2023-11-25T04:18:19.508Z,3.64
2023-11-25T04:20:41.637Z,3.67
2023-11-25T04:23:08.101Z,3.70
2023-11-25T04:25:30.574Z,3.73
2023-11-25T04:27:52.696Z,3.73
2023-11-25T04:30:16.981Z,3.73
2023-11-25T04:32:44.242Z,3.71
2023-11-25T04:35:06.954Z,3.67
2023-11-25T04:37:28.849Z,3.64
2023-11-25T04:39:50.749Z,3.45
2023-11-25T04:42:12.630Z,3.42
2023-11-25T04:44:34.577Z,3.29
2023-11-25T04:46:56.575Z,3.35
2023-11-25T04:49:18.557Z,3.25
2023-11-25T04:51:40.491Z,3.35
2023-11-25T04:54:02.612Z,3.35
2023-11-25T04:56:24.498Z,3.31
2023-11-25T04:58:46.509Z,3.43
2023-11-25T05:01:08.550Z,3.52
2023-11-25T05:03:30.512Z,3.66
2023-11-25T05:05:52.413Z,3.73
2023-11-25T05:08:14.284Z,3.83
2023-11-25T05:10:36.218Z,3.64
2023-11-25T05:12:58.083Z,3.73
2023-11-25T05:15:20.042Z,3.83
2023-11-25T05:17:42.169Z,3.87
2023-11-25T05:20:05.614Z,3.96
2023-11-25T05:22:30.467Z,4.03
2023-11-25T05:24:52.453Z,4.07
2023-11-25T05:27:14.320Z,4.02
2023-11-25T05:29:36.309Z,3.96
2023-11-25T05:31:58.376Z,3.98
2023-11-25T05:34:21.378Z,3.83
2023-11-25T05:36:43.894Z,3.75
2023-11-25T05:39:08.332Z,3.83
2023-11-25T05:41:30.299Z,3.86
2023-11-25T05:43:52.264Z,3.87
2023-11-25T05:46:23.061Z,3.97
2023-11-25T05:48:44.992Z,3.94
2023-11-25T05:51:07.289Z,3.93
2023-11-25T05:53:29.312Z,3.91
2023-11-25T05:55:51.258Z,3.94
2023-11-25T05:58:14.297Z,3.94
2023-11-25T06:00:36.216Z,3.92
2023-11-25T06:02:58.098Z,3.90
2023-11-25T06:05:20.043Z,3.86
2023-11-25T06:07:42.039Z,3.80
2023-11-25T06:10:04.796Z,3.78
2023-11-25T06:12:27.917Z,3.81
2023-11-25T06:14:53.706Z,3.78
2023-11-25T06:17:15.717Z,3.59
2023-11-25T06:19:37.712Z,3.63
2023-11-25T06:22:00.253Z,3.68
2023-11-25T06:24:22.100Z,3.66
2023-11-25T06:26:45.367Z,3.64
2023-11-25T06:29:08.126Z,3.63
2023-11-25T06:31:30.089Z,3.59
2023-11-25T06:33:53.004Z,3.57
2023-11-25T06:36:15.175Z,3.56
2023-11-25T06:38:37.220Z,3.57
2023-11-25T06:40:59.392Z,3.56
2023-11-25T06:43:21.280Z,3.55
2023-11-25T06:45:45.285Z,3.56
2023-11-25T06:48:08.839Z,3.56
2023-11-25T06:50:30.743Z,3.58
2023-11-25T06:52:52.750Z,3.61
2023-11-25T06:55:15.610Z,3.67
2023-11-25T06:57:37.747Z,3.63
2023-11-25T06:59:59.589Z,3.66
2023-11-25T07:02:21.535Z,3.66
2023-11-25T07:04:44.320Z,3.71
2023-11-25T07:07:06.601Z,3.73
2023-11-25T07:09:28.482Z,3.71
2023-11-25T07:11:50.356Z,3.75
2023-11-25T07:14:12.253Z,3.71
2023-11-25T07:16:34.912Z,3.75
2023-11-25T07:18:56.826Z,3.80
2023-11-25T07:21:18.716Z,3.81
2023-11-25T07:23:40.964Z,3.85
2023-11-25T07:26:02.903Z,3.96
2023-11-25T07:28:25.890Z,4.09
2023-11-25T07:30:49.590Z,4.16
2023-11-25T07:33:11.826Z,4.28
2023-11-25T07:35:33.764Z,4.37
2023-11-25T07:37:55.735Z,4.50
2023-11-25T07:40:17.729Z,4.54
2023-11-25T07:42:47.285Z,4.82
2023-11-25T07:45:10.447Z,5.09
2023-11-25T07:47:32.443Z,5.37
2023-11-25T07:49:54.412Z,5.79
2023-11-25T07:52:16.494Z,6.26
2023-11-25T07:54:39.011Z,6.62
2023-11-25T07:57:01.347Z,6.97
2023-11-25T07:59:23.235Z,7.29
2023-11-25T08:01:46.377Z,7.43
2023-11-25T08:04:08.360Z,7.96
2023-11-25T08:06:30.342Z,8.78
2023-11-25T08:08:55.789Z,9.15
2023-11-25T08:11:28.715Z,8.90
2023-11-25T08:13:51.156Z,8.40
2023-11-25T08:16:13.207Z,7.75
2023-11-25T08:18:35.076Z,7.05
2023-11-25T08:20:57.005Z,6.55
2023-11-25T08:23:18.877Z,6.20
2023-11-25T08:25:40.754Z,5.83
2023-11-25T08:28:03.818Z,5.62
2023-11-25T08:30:25.755Z,5.58
2023-11-25T08:32:47.710Z,5.65
2023-11-25T08:35:10.807Z,5.76
2023-11-25T08:37:36.296Z,5.85
2023-11-25T08:39:58.489Z,5.92
2023-11-25T08:42:20.375Z,5.99
2023-11-25T08:44:46.423Z,6.04
2023-11-25T08:47:08.342Z,6.02
2023-11-25T08:49:30.330Z,6.02
2023-11-25T08:51:52.642Z,6.01
2023-11-25T08:54:15.216Z,5.96
2023-11-25T08:56:41.756Z,5.90
2023-11-25T08:59:06.781Z,5.88
2023-11-25T09:01:40.305Z,5.84
2023-11-25T09:04:02.373Z,5.88
2023-11-25T09:06:24.686Z,5.88
2023-11-25T09:08:46.631Z,5.90
2023-11-25T09:11:08.682Z,5.91
2023-11-25T09:13:33.590Z,5.91
2023-11-25T09:15:55.763Z,5.92
2023-11-25T09:18:19.462Z,5.94
2023-11-25T09:20:41.276Z,5.97
2023-11-25T09:23:03.277Z,5.97
2023-11-25T09:25:25.983Z,5.94
2023-11-25T09:27:48.643Z,5.94
2023-11-25T09:30:12.568Z,5.97
2023-11-25T09:32:35.272Z,5.96
2023-11-25T09:34:59.193Z,5.96
2023-11-25T09:37:21.141Z,5.95
2023-11-25T09:39:43.012Z,5.94
2023-11-25T09:42:05.522Z,5.85
2023-11-25T09:44:28.227Z,5.82
2023-11-25T09:46:51.112Z,5.78
2023-11-25T09:49:13.415Z,5.76
2023-11-25T09:51:35.566Z,5.83
2023-11-25T09:53:58.606Z,5.86
2023-11-25T09:56:20.641Z,5.87
2023-11-25T09:58:42.560Z,5.89
2023-11-25T10:01:11.479Z,5.93
2023-11-25T10:03:40.721Z,5.96
2023-11-25T10:06:03.574Z,5.99
2023-11-25T10:08:25.919Z,6.01
2023-11-25T10:11:06.897Z,6.02
2023-11-25T10:13:40.316Z,6.04
2023-11-25T10:16:04.227Z,6.07
2023-11-25T10:18:26.237Z,6.08
2023-11-25T10:20:49.397Z,6.14
2023-11-25T10:23:11.304Z,6.12
2023-11-25T10:25:35.464Z,6.13
2023-11-25T10:27:57.767Z,6.19
2023-11-25T10:30:21.896Z,6.19
2023-11-25T10:32:44.351Z,6.26
2023-11-25T10:35:07.319Z,6.33
2023-11-25T10:37:32.565Z,6.39
2023-11-25T10:39:54.567Z,6.38
2023-11-25T10:42:18.173Z,6.50
2023-11-25T10:44:40.949Z,6.63
2023-11-25T10:47:03.921Z,6.85
2023-11-25T10:49:27.203Z,7.07
2023-11-25T10:51:56.207Z,7.25
2023-11-25T10:54:18.347Z,7.37
2023-11-25T10:56:41.921Z,7.37
2023-11-25T10:59:04.436Z,7.37
2023-11-25T11:01:32.405Z,7.38
2023-11-25T11:04:34.322Z,7.31
2023-11-25T11:07:00.826Z,7.27
2023-11-25T11:09:30.454Z,7.19
2023-11-25T11:11:57.463Z,7.19
2023-11-25T11:14:23.335Z,7.20
2023-11-25T11:17:25.430Z,7.13
2023-11-25T11:19:52.220Z,7.12
2023-11-25T11:22:14.942Z,7.11
2023-11-25T11:25:05.774Z,7.07
2023-11-25T11:27:56.519Z,7.01
2023-11-25T11:31:09.311Z,7.02
2023-11-25T11:33:31.425Z,7.07
2023-11-25T11:35:53.291Z,7.10
2023-11-25T11:38:26.051Z,7.09
2023-11-25T11:40:47.967Z,7.11
2023-11-25T11:43:15.240Z,7.16
2023-11-25T11:45:37.345Z,7.17
2023-11-25T11:48:04.788Z,7.13
2023-11-25T11:50:34.328Z,7.14
2023-11-25T11:53:04.926Z,7.21
2023-11-25T11:55:54.146Z,7.31
2023-11-25T11:58:18.130Z,7.40
2023-11-25T12:00:47.824Z,7.51
2023-11-25T12:03:10.576Z,7.59
2023-11-25T12:05:32.689Z,7.61
2023-11-25T12:07:54.712Z,7.57
2023-11-25T12:10:16.632Z,7.47
2023-11-25T12:12:42.503Z,7.41
2023-11-25T12:15:07.431Z,7.42
2023-11-25T12:17:29.389Z,7.45
2023-11-25T12:19:54.182Z,7.47
2023-11-25T12:22:16.728Z,7.54
2023-11-25T12:24:41.895Z,7.57
2023-11-25T12:27:06.667Z,7.60
2023-11-25T12:29:28.533Z,7.59
2023-11-25T12:31:50.637Z,7.54
2023-11-25T12:34:12.813Z,7.48
2023-11-25T12:36:34.865Z,7.45
2023-11-25T12:38:56.807Z,7.45
2023-11-25T12:41:19.871Z,7.47
2023-11-25T12:44:10.648Z,7.44
2023-11-25T12:46:33.228Z,7.49
2023-11-25T12:48:58.568Z,7.53
2023-11-25T12:51:20.508Z,7.58
2023-11-25T12:53:55.159Z,7.59
2023-11-25T12:56:18.423Z,7.57
2023-11-25T12:58:44.733Z,7.60
2023-11-25T13:01:10.838Z,7.63
2023-11-25T13:03:33.267Z,7.66
2023-11-25T13:06:12.051Z,7.69
2023-11-25T13:08:38.392Z,7.69
2023-11-25T13:11:05.006Z,7.64
2023-11-25T13:13:30.260Z,7.67
2023-11-25T13:15:55.683Z,7.66
2023-11-25T13:18:17.615Z,7.61
2023-11-25T13:20:41.340Z,7.60
2023-11-25T13:23:03.286Z,7.64
2023-11-25T13:25:26.400Z,7.56
2023-11-25T13:27:48.963Z,7.61
2023-11-25T13:30:11.998Z,7.52
2023-11-25T13:32:35.178Z,7.48
2023-11-25T13:34:57.201Z,7.42
2023-11-25T13:37:19.104Z,7.44
2023-11-25T13:39:41.020Z,7.39
2023-11-25T13:42:05.783Z,7.39
2023-11-25T13:44:28.607Z,7.38
2023-11-25T13:46:50.640Z,7.33
2023-11-25T13:49:13.573Z,7.35
2023-11-25T13:51:35.796Z,7.32
2023-11-25T13:54:00.442Z,7.34
2023-11-25T13:56:22.400Z,7.32
2023-11-25T13:58:44.289Z,7.30
2023-11-25T14:01:07.207Z,7.25
2023-11-25T14:03:29.426Z,7.30
2023-11-25T14:05:51.458Z,7.34
2023-11-25T14:08:16.987Z,7.39
2023-11-25T14:10:39.582Z,7.42
2023-11-25T14:13:01.601Z,7.42
2023-11-25T14:15:23.603Z,7.45
2023-11-25T14:17:45.749Z,7.42
2023-11-25T14:20:17.649Z,7.41
2023-11-25T14:22:39.597Z,7.41
2023-11-25T14:25:01.525Z,7.42
2023-11-25T14:27:23.349Z,7.42
2023-11-25T14:29:45.564Z,7.39
2023-11-25T14:32:07.762Z,7.43
2023-11-25T14:34:29.866Z,7.41
2023-11-25T14:36:52.140Z,7.45
2023-11-25T14:39:19.327Z,7.48
2023-11-25T14:41:41.246Z,7.46
2023-11-25T14:44:03.138Z,7.39
2023-11-25T14:46:25.172Z,7.42
2023-11-25T14:48:47.061Z,7.45
2023-11-25T14:51:08.922Z,7.54
2023-11-25T14:53:30.859Z,7.57
2023-11-25T14:55:52.861Z,7.58
2023-11-25T14:58:14.727Z,7.54
2023-11-25T15:00:36.580Z,7.37
2023-11-25T15:03:00.420Z,7.47
2023-11-25T15:05:22.478Z,7.45
2023-11-25T15:07:45.020Z,7.48
2023-11-25T15:10:10.856Z,7.53
2023-11-25T15:12:32.757Z,7.53
2023-11-25T15:14:55.894Z,7.49
2023-11-25T15:17:18.026Z,7.52
2023-11-25T15:19:42.281Z,7.41
2023-11-25T15:22:05.220Z,7.43
2023-11-25T15:24:27.418Z,7.51
2023-11-25T15:26:49.272Z,7.51
2023-11-25T15:29:14.882Z,7.53
2023-11-25T15:31:36.790Z,7.52
2023-11-25T15:33:58.745Z,7.52
2023-11-25T15:36:20.816Z,7.51
2023-11-25T15:38:43.286Z,7.48
2023-11-25T15:41:08.094Z,7.43
2023-11-25T15:43:30.944Z,7.44
2023-11-25T15:45:54.354Z,7.43
2023-11-25T15:48:16.307Z,7.42
2023-11-25T15:50:40.188Z,7.41
2023-11-25T15:53:03.493Z,7.41
2023-11-25T15:55:25.441Z,7.39
2023-11-25T15:57:47.376Z,7.38
2023-11-25T16:00:14.938Z,7.40
2023-11-25T16:02:37.287Z,7.36
2023-11-25T16:04:59.263Z,7.34
2023-11-25T16:07:22.218Z,7.35
2023-11-25T16:09:45.358Z,7.33
2023-11-25T16:12:07.716Z,7.36
2023-11-25T16:14:29.576Z,7.38
2023-11-25T16:16:51.493Z,7.41
2023-11-25T16:19:13.354Z,7.43
2023-11-25T16:21:37.840Z,7.40
2023-11-25T16:24:01.197Z,7.37
2023-11-25T16:26:23.129Z,7.34
2023-11-25T16:28:45.056Z,7.32
2023-11-25T16:31:10.458Z,7.33
2023-11-25T16:33:33.030Z,7.34
2023-11-25T16:35:54.983Z,7.34
2023-11-25T16:38:19.694Z,7.34
2023-11-25T16:40:41.776Z,7.28
2023-11-25T16:43:04.699Z,7.29
2023-11-25T16:45:26.637Z,7.34
2023-11-25T16:47:48.692Z,7.37
2023-11-25T16:50:10.758Z,7.38
2023-11-25T16:52:32.672Z,7.41
2023-11-25T16:54:54.603Z,7.42
2023-11-25T16:57:16.796Z,7.41
2023-11-25T16:59:39.548Z,7.39
2023-11-25T17:02:02.400Z,7.35
2023-11-25T17:04:24.900Z,7.35
2023-11-25T17:06:46.862Z,7.30
2023-11-25T17:09:09.493Z,7.30
2023-11-25T17:11:31.393Z,7.29
2023-11-25T17:13:54.184Z,7.31
2023-11-25T17:16:20.877Z,7.28
2023-11-25T17:18:42.730Z,7.30
2023-11-25T17:21:04.823Z,7.30
2023-11-25T17:23:26.699Z,7.30
2023-11-25T17:25:48.630Z,7.29
2023-11-25T17:28:10.564Z,7.29
2023-11-25T17:30:36.193Z,7.31
2023-11-25T17:32:58.876Z,7.35
2023-11-25T17:35:21.931Z,7.32
2023-11-25T17:37:44.467Z,7.32
2023-11-25T17:40:07.012Z,7.27
2023-11-25T17:42:29.182Z,7.29
2023-11-25T17:44:51.430Z,7.33
2023-11-25T17:47:14.249Z,7.34
2023-11-25T17:49:36.136Z,7.33
2023-11-25T17:51:58.144Z,7.31
2023-11-25T17:54:20.040Z,7.29
2023-11-25T17:56:42.268Z,7.33
2023-11-25T17:59:04.258Z,7.32
2023-11-25T18:01:26.187Z,7.26
2023-11-25T18:03:48.410Z,7.27
2023-11-25T18:06:12.152Z,7.22
2023-11-25T18:08:34.132Z,7.18
2023-11-25T18:10:56.018Z,7.18
2023-11-25T18:13:17.966Z,7.14
2023-11-25T18:15:39.871Z,7.19
2023-11-25T18:18:01.881Z,7.20
2023-11-25T18:20:23.957Z,7.22
2023-11-25T18:22:45.809Z,7.24
2023-11-25T18:25:10.122Z,7.22
2023-11-25T18:27:31.970Z,7.19
2023-11-25T18:29:54.413Z,7.13
2023-11-25T18:32:17.575Z,7.12
2023-11-25T18:34:39.722Z,7.02
2023-11-25T18:37:02.047Z,7.03
2023-11-25T18:39:24.865Z,7.07
2023-11-25T18:41:46.920Z,7.02
2023-11-25T18:44:10.231Z,7.10
2023-11-25T18:46:32.437Z,7.12
2023-11-25T18:48:54.383Z,6.99
2023-11-25T18:51:16.375Z,7.03
2023-11-25T18:53:38.328Z,6.88
2023-11-25T18:56:01.200Z,6.89
2023-11-25T18:58:23.519Z,6.88
2023-11-25T19:00:45.421Z,6.91
2023-11-25T19:03:08.713Z,6.78
2023-11-25T19:05:30.611Z,6.80
2023-11-25T19:07:52.616Z,6.78
2023-11-25T19:10:17.615Z,6.76
2023-11-25T19:12:39.785Z,6.72
2023-11-25T19:15:02.376Z,6.65
2023-11-25T19:17:24.352Z,6.67
2023-11-25T19:19:46.615Z,6.62
2023-11-25T19:22:11.582Z,6.54
2023-11-25T19:24:33.870Z,6.62
2023-11-25T19:26:55.743Z,6.74
2023-11-25T19:29:17.719Z,6.73
2023-11-25T19:31:39.658Z,6.76
2023-11-25T19:34:01.707Z,6.75
2023-11-25T19:36:23.668Z,6.76
2023-11-25T19:38:46.405Z,6.79
2023-11-25T19:41:08.643Z,6.68
2023-11-25T19:43:30.728Z,6.67
2023-11-25T19:45:52.573Z,6.49
2023-11-25T19:48:14.630Z,6.51
2023-11-25T19:50:37.612Z,6.52
2023-11-25T19:52:59.615Z,6.65
2023-11-25T19:55:21.601Z,6.61
2023-11-25T19:57:43.425Z,6.55
2023-11-25T20:00:10.601Z,6.67
2023-11-25T20:02:32.707Z,6.71
2023-11-25T20:04:55.216Z,6.69
2023-11-25T20:07:17.531Z,6.80
2023-11-25T20:09:39.442Z,6.88
2023-11-25T20:12:01.349Z,6.97
2023-11-25T20:14:26.289Z,6.99
2023-11-25T20:16:48.342Z,6.88
2023-11-25T20:19:13.310Z,7.01
2023-11-25T20:21:35.647Z,7.01
2023-11-25T20:23:58.520Z,6.97
2023-11-25T20:26:22.573Z,7.04
2023-11-25T20:28:44.602Z,6.93
2023-11-25T20:31:06.618Z,6.82
2023-11-25T20:33:28.566Z,6.44
2023-11-25T20:35:50.841Z,6.09
2023-11-25T20:38:12.765Z,5.91
2023-11-25T20:40:34.872Z,5.82
2023-11-25T20:42:56.806Z,5.71
2023-11-25T20:45:19.634Z,5.63
2023-11-25T20:47:41.577Z,5.58
2023-11-25T20:50:03.718Z,5.52
2023-11-25T20:52:25.629Z,5.52
2023-11-25T20:54:47.542Z,5.53
2023-11-25T20:57:14.337Z,5.52
2023-11-25T20:59:36.205Z,5.49
2023-11-25T21:01:58.213Z,5.55
2023-11-25T21:04:20.247Z,5.53
2023-11-25T21:06:42.246Z,5.60
2023-11-25T21:09:04.328Z,5.61
2023-11-25T21:11:26.325Z,5.67
2023-11-25T21:13:48.459Z,5.71
2023-11-25T21:16:12.684Z,5.76
2023-11-25T21:18:39.304Z,5.80
2023-11-25T21:21:08.166Z,5.82
2023-11-25T21:23:30.042Z,5.85
2023-11-25T21:25:52.193Z,5.82
2023-11-25T21:28:14.705Z,5.81
2023-11-25T21:30:36.756Z,5.76
2023-11-25T21:32:58.756Z,5.71
2023-11-25T21:35:20.784Z,5.62
2023-11-25T21:37:43.990Z,5.58
2023-11-25T21:40:20.231Z,5.49
2023-11-25T21:42:45.285Z,5.47
2023-11-25T21:45:08.890Z,5.40
2023-11-25T21:47:31.166Z,5.35
2023-11-25T21:49:53.170Z,5.43
2023-11-25T21:52:15.055Z,5.45
2023-11-25T21:54:38.715Z,5.46
2023-11-25T21:57:00.891Z,5.47
2023-11-25T21:59:22.846Z,5.46
2023-11-25T22:01:45.925Z,5.43
2023-11-25T22:04:07.920Z,5.35
2023-11-25T22:06:29.995Z,5.33
2023-11-25T22:08:52.018Z,5.33
2023-11-25T22:11:13.967Z,5.32
2023-11-25T22:13:35.886Z,5.27
2023-11-25T22:15:58.225Z,5.29
2023-11-25T22:18:20.665Z,5.30
2023-11-25T22:20:42.657Z,5.31
2023-11-25T22:23:04.782Z,5.30
2023-11-25T22:25:35.474Z,5.27
2023-11-25T22:27:57.552Z,5.24
2023-11-25T22:30:19.414Z,5.16
2023-11-25T22:32:41.392Z,5.15
2023-11-25T22:35:03.617Z,5.14
2023-11-25T22:37:28.060Z,5.13
2023-11-25T22:39:49.936Z,5.09
2023-11-25T22:42:11.878Z,5.08
2023-11-25T22:44:33.937Z,5.01
2023-11-25T22:46:56.421Z,5.00
2023-11-25T22:49:18.279Z,4.95
2023-11-25T22:51:40.156Z,4.88
2023-11-25T22:54:02.137Z,4.84
2023-11-25T22:56:24.207Z,4.82
2023-11-25T22:58:47.288Z,4.80
2023-11-25T23:01:19.773Z,4.80
2023-11-25T23:03:41.847Z,4.75
2023-11-25T23:06:08.702Z,4.76
2023-11-25T23:08:31.610Z,4.72
2023-11-25T23:10:53.699Z,4.68
2023-11-25T23:13:15.611Z,4.69
2023-11-25T23:15:37.681Z,4.64
2023-11-25T23:18:01.849Z,4.69
2023-11-25T23:20:24.186Z,4.70
2023-11-25T23:22:46.119Z,4.68
2023-11-25T23:25:09.045Z,4.70
2023-11-25T23:27:31.952Z,4.66
2023-11-25T23:29:53.816Z,4.64
2023-11-25T23:32:15.989Z,4.58
2023-11-25T23:34:38.210Z,4.57
2023-11-25T23:37:00.225Z,4.61
2023-11-25T23:39:22.043Z,4.62
2023-11-25T23:41:43.890Z,4.60
2023-11-25T23:44:05.952Z,4.57
2023-11-25T23:46:27.905Z,4.58
2023-11-25T23:48:49.836Z,4.47
2023-11-25T23:51:11.715Z,4.38
2023-11-25T23:53:33.732Z,4.31
2023-11-25T23:55:55.924Z,4.24
2023-11-25T23:58:17.958Z,4.21
